Time;durP1;ratioP1;P1;durP2;ratioP2;P2;SDS_P1;SDS_P2;PMS_P1;PMS_P2;Temp;Humidity;BMP_temperature;BMP_pressure;BME280_temperature;BME280_humidity;BME280_pressure;Samples;Min_cycle;Max_cycle;Signal;HPM_P1;HPM_P2
2022/04/08 00:01:44;;;;;;;7.05;4.18;;;;;;;8.78;74.77;93563.28;5130487;28;20316;-69
2022/04/08 00:04:09;;;;;;;6.25;3.70;;;;;;;8.65;73.96;93542.09;5113188;28;20060;-69
2022/04/08 00:06:35;;;;;;;5.03;3.80;;;;;;;8.83;74.31;93574.03;5130331;28;20035;-69
2022/04/08 00:09:00;;;;;;;5.53;3.17;;;;;;;8.87;74.88;93564.19;5127948;28;20091;-69
2022/04/08 00:11:25;;;;;;;5.90;3.50;;;;;;;8.73;73.32;93557.72;5093337;28;20496;-69
2022/04/08 00:13:53;;;;;;;5.28;3.90;;;;;;;8.83;73.56;93571.44;5096898;28;20019;-69
2022/04/08 00:16:19;;;;;;;4.80;3.63;;;;;;;8.80;74.65;93569.09;5113761;28;20059;-69
2022/04/08 00:18:45;;;;;;;6.47;4.10;;;;;;;8.74;74.13;93585.22;5114763;27;20072;-69
2022/04/08 00:21:11;;;;;;;4.43;3.80;;;;;;;8.75;73.66;93581.69;5123961;27;20062;-69
2022/04/08 00:23:36;;;;;;;6.68;4.18;;;;;;;8.69;73.35;93585.69;5113561;27;20031;-70
2022/04/08 00:26:01;;;;;;;5.47;3.72;;;;;;;8.72;73.21;93589.75;5083059;27;20676;-69
2022/04/08 00:28:27;;;;;;;4.55;3.50;;;;;;;8.84;73.06;93595.53;5135827;27;20529;-69
2022/04/08 00:30:52;;;;;;;4.95;2.80;;;;;;;8.75;72.65;93591.22;5134003;27;20051;-69
2022/04/08 00:33:18;;;;;;;3.22;2.80;;;;;;;8.87;70.58;93601.25;5117056;27;20083;-69
2022/04/08 00:35:43;;;;;;;4.78;3.20;;;;;;;8.81;72.49;93583.69;5116499;27;20035;-70
2022/04/08 00:38:09;;;;;;;3.75;2.55;;;;;;;8.86;68.87;93604.81;5131147;27;20027;-69
2022/04/08 00:40:34;;;;;;;4.00;2.60;;;;;;;8.91;69.03;93607.78;5113384;28;20020;-69
2022/04/08 00:43:16;;;;;;;3.67;2.50;;;;;;;8.95;70.63;93609.09;5113502;28;20039;-69
2022/04/08 00:45:42;;;;;;;3.40;2.63;;;;;;;8.95;69.61;93616.06;5097206;28;20028;-69
2022/04/08 00:48:08;;;;;;;4.15;2.70;;;;;;;9.01;70.52;93606.88;5113474;28;20031;-69
2022/04/08 00:50:44;;;;;;;3.55;2.67;;;;;;;8.93;67.05;93608.41;5113130;28;20058;-70
2022/04/08 00:53:09;;;;;;;4.18;2.42;;;;;;;9.05;68.26;93618.56;5113329;28;20032;-69
2022/04/08 00:55:35;;;;;;;2.75;2.28;;;;;;;9.07;66.69;93607.09;5095968;28;20020;-69
2022/04/08 00:58:02;;;;;;;2.60;2.20;;;;;;;9.12;65.00;93607.47;5096358;28;20035;-69
2022/04/08 01:00:28;;;;;;;2.00;1.65;;;;;;;9.23;63.11;93611.63;5113234;28;20020;-69
2022/04/08 01:02:53;;;;;;;3.10;2.22;;;;;;;9.34;65.34;93600.22;5095914;28;20046;-69
2022/04/08 01:05:20;;;;;;;2.65;2.13;;;;;;;9.33;65.00;93611.53;5114078;28;20032;-69
2022/04/08 01:07:45;;;;;;;4.32;2.05;;;;;;;9.29;63.23;93605.84;5114341;28;20066;-69
2022/04/08 01:10:11;;;;;;;2.92;2.30;;;;;;;9.29;63.49;93598.06;5078893;28;20055;-69
2022/04/08 01:12:36;;;;;;;4.03;2.50;;;;;;;9.42;65.55;93604.66;5112861;28;20040;-69
2022/04/08 01:15:01;;;;;;;3.13;2.25;;;;;;;9.38;63.87;93591.19;5101591;27;20034;-69
2022/04/08 01:17:27;;;;;;;2.92;2.30;;;;;;;9.37;65.12;93605.13;5133267;27;20123;-69
2022/04/08 01:19:53;;;;;;;2.95;1.92;;;;;;;9.28;63.23;93601.63;5116029;27;20046;-69
2022/04/08 01:22:21;;;;;;;2.55;1.90;;;;;;;9.36;63.57;93617.25;5132851;27;20030;-69
2022/04/08 01:24:48;;;;;;;3.58;2.22;;;;;;;9.37;60.54;93610.31;5082392;28;20060;-70
2022/04/08 01:27:16;;;;;;;2.67;1.90;;;;;;;9.46;60.07;93616.38;5091280;28;20055;-69
2022/04/08 01:29:42;;;;;;;3.20;1.80;;;;;;;9.50;60.65;93617.69;5115098;27;20027;-70
2022/04/08 01:32:07;;;;;;;3.72;1.90;;;;;;;9.56;59.70;93611.91;5134282;27;20081;-70
2022/04/08 01:34:33;;;;;;;2.35;1.70;;;;;;;9.59;59.21;93611.63;5132790;27;20042;-69
2022/04/08 01:36:58;;;;;;;2.28;1.70;;;;;;;9.67;59.51;93629.00;5115448;27;20095;-69
2022/04/08 01:39:23;;;;;;;2.90;1.75;;;;;;;9.71;59.49;93625.16;5132837;27;20027;-69
2022/04/08 01:41:49;;;;;;;3.13;1.95;;;;;;;9.69;59.50;93620.09;5131642;27;20096;-69
2022/04/08 01:44:14;;;;;;;2.60;1.88;;;;;;;9.78;59.81;93627.00;5112068;28;20163;-69
2022/04/08 01:46:40;;;;;;;2.53;1.90;;;;;;;9.76;59.88;93618.56;5112051;28;20542;-69
2022/04/08 01:49:05;;;;;;;2.40;1.90;;;;;;;9.80;60.59;93619.84;5113350;28;20060;-69
2022/04/08 01:51:31;;;;;;;3.45;1.95;;;;;;;9.69;60.62;93606.34;5111925;28;20084;-69
2022/04/08 01:53:56;;;;;;;2.35;1.60;;;;;;;9.74;59.26;93617.06;5095002;28;20036;-69
2022/04/08 01:56:21;;;;;;;3.00;1.70;;;;;;;9.74;58.24;93615.28;5113009;28;20027;-69
2022/04/08 01:58:47;;;;;;;2.20;1.55;;;;;;;9.73;59.11;93610.25;5111864;28;20036;-69
2022/04/08 02:01:12;;;;;;;5.20;1.95;;;;;;;9.78;60.87;93611.44;5111702;28;20031;-69
2022/04/08 02:03:38;;;;;;;3.00;1.80;;;;;;;9.62;58.51;93606.13;5111698;28;20023;-69
2022/04/08 02:06:03;;;;;;;2.28;1.73;;;;;;;9.72;60.37;93613.81;5111607;28;20409;-69
2022/04/08 02:08:29;;;;;;;5.82;3.38;;;;;;;9.72;61.26;93619.00;5113384;28;20409;-70
2022/04/08 02:10:54;;;;;;;2.47;1.92;;;;;;;9.57;61.43;93629.09;5111521;28;20425;-69
2022/04/08 02:13:20;;;;;;;5.25;2.13;;;;;;;9.57;62.15;93626.50;5094568;28;20410;-69
2022/04/08 02:15:46;;;;;;;4.57;2.13;;;;;;;9.56;62.56;93632.66;5094465;28;20027;-70
2022/04/08 02:18:12;;;;;;;3.20;2.17;;;;;;;9.48;63.89;93622.22;5112602;27;20404;-69
2022/04/08 02:20:37;;;;;;;3.17;1.98;;;;;;;9.40;64.43;93631.53;5097690;27;20030;-70
2022/04/08 02:23:02;;;;;;;3.88;2.08;;;;;;;9.31;64.28;93627.25;5115013;27;20425;-69
2022/04/08 02:25:28;;;;;;;3.67;2.22;;;;;;;9.24;64.37;93636.56;5131764;27;20080;-69
2022/04/08 02:27:53;;;;;;;4.68;2.60;;;;;;;9.16;64.26;93632.16;5126657;27;20035;-69
2022/04/08 02:30:19;;;;;;;4.00;2.10;;;;;;;8.92;64.28;93634.47;5094143;28;20038;-69
2022/04/08 02:32:44;;;;;;;3.67;2.85;;;;;;;8.80;64.94;93645.97;5095565;27;20039;-69
2022/04/08 02:35:10;;;;;;;2.53;1.88;;;;;;;8.58;64.21;93636.81;5114630;27;20508;-69
2022/04/08 02:37:35;;;;;;;2.75;2.10;;;;;;;8.53;64.46;93649.41;5114659;27;20050;-69
2022/04/08 02:40:01;;;;;;;11.80;7.20;;;;;;;8.50;65.73;93653.91;5114501;27;20027;-69
2022/04/08 02:42:30;;;;;;;4.95;3.20;;;;;;;8.41;65.75;93653.91;5131622;27;20073;-69
2022/04/08 02:44:56;;;;;;;4.97;3.28;;;;;;;8.34;66.22;93661.41;5113419;27;20554;-69
2022/04/08 02:47:21;;;;;;;4.03;2.70;;;;;;;8.27;66.66;93655.16;5094057;28;20035;-69
2022/04/08 02:49:46;;;;;;;2.53;1.73;;;;;;;8.17;67.00;93664.75;5112092;28;20031;-69
2022/04/08 02:52:12;;;;;;;2.65;2.10;;;;;;;8.07;66.73;93681.09;5112205;28;20023;-70
2022/04/08 02:54:37;;;;;;;3.85;2.20;;;;;;;7.99;67.34;93668.03;5112085;28;20142;-69
2022/04/08 02:57:03;;;;;;;2.88;2.15;;;;;;;7.95;67.33;93677.03;5110764;28;20043;-69
2022/04/08 02:59:28;;;;;;;3.55;2.47;;;;;;;7.86;67.61;93693.38;5093686;28;20092;-70
2022/04/08 03:01:54;;;;;;;3.67;2.25;;;;;;;7.78;67.62;93683.72;5093710;28;20036;-69
2022/04/08 03:04:19;;;;;;;4.20;2.30;;;;;;;7.56;68.23;93660.75;5093592;28;20390;-69
2022/04/08 03:06:44;;;;;;;5.95;4.40;;;;;;;7.51;68.75;93684.41;5110445;28;20508;-69
2022/04/08 03:09:10;;;;;;;5.25;3.65;;;;;;;7.54;68.76;93701.41;5111791;28;20020;-69
2022/04/08 03:11:35;;;;;;;5.47;3.50;;;;;;;7.35;68.50;93699.63;5110394;28;20035;-69
2022/04/08 03:14:02;;;;;;;4.53;3.10;;;;;;;7.34;68.64;93706.56;5093557;28;20032;-69
2022/04/08 03:16:28;;;;;;;4.30;2.80;;;;;;;7.30;69.21;93707.81;5110373;28;20063;-69
2022/04/08 03:18:53;;;;;;;4.82;3.42;;;;;;;7.15;69.31;93715.09;5110453;28;20444;-70
2022/04/08 03:21:19;;;;;;;4.45;2.80;;;;;;;7.14;69.45;93716.06;5093540;27;20039;-69
2022/04/08 03:23:44;;;;;;;5.95;2.88;;;;;;;7.08;69.39;93719.19;5113827;27;20029;-69
2022/04/08 03:26:10;;;;;;;5.35;3.08;;;;;;;7.04;69.47;93712.63;5130617;27;20063;-69
2022/04/08 03:28:36;;;;;;;2.97;2.30;;;;;;;6.98;69.32;93735.59;5129800;27;20026;-69
2022/04/08 03:31:01;;;;;;;3.10;2.22;;;;;;;6.91;68.98;93728.38;5105440;28;20023;-69
2022/04/08 03:33:27;;;;;;;4.40;2.50;;;;;;;6.76;69.35;93737.41;5110322;28;20032;-69
2022/04/08 03:35:52;;;;;;;5.57;3.30;;;;;;;6.71;69.77;93744.72;5129291;27;20023;-69
2022/04/08 03:38:18;;;;;;;5.78;2.45;;;;;;;6.64;70.01;93741.84;5130802;27;20038;-69
2022/04/08 03:40:43;;;;;;;4.30;2.20;;;;;;;6.58;69.82;93757.03;5131779;27;20027;-69
2022/04/08 03:43:08;;;;;;;4.43;2.40;;;;;;;6.53;70.53;93757.41;5132340;27;20080;-69
2022/04/08 03:45:34;;;;;;;3.35;2.25;;;;;;;6.58;70.73;93763.00;5131747;27;20416;-69
2022/04/08 03:47:59;;;;;;;5.93;3.70;;;;;;;6.53;71.01;93756.59;5129653;27;20034;-69
2022/04/08 03:50:25;;;;;;;3.28;2.50;;;;;;;6.29;70.28;93741.41;5109941;28;20024;-70
2022/04/08 03:52:50;;;;;;;10.10;7.65;;;;;;;6.29;70.79;93767.19;5092987;28;20031;-74
2022/04/08 03:55:17;;;;;;;6.47;4.50;;;;;;;6.36;70.96;93776.06;5076137;28;20016;-70
2022/04/08 03:57:42;;;;;;;7.63;3.67;;;;;;;6.32;71.48;93767.75;5093102;28;20405;-69
2022/04/08 04:00:08;;;;;;;6.07;4.50;;;;;;;6.28;71.88;93774.13;5094322;28;20027;-69
2022/04/08 04:02:34;;;;;;;4.28;3.10;;;;;;;6.29;72.15;93792.97;5106552;28;20039;-70
2022/04/08 04:05:00;;;;;;;9.23;4.50;;;;;;;6.22;72.32;93778.03;5110115;27;20068;-70
2022/04/08 04:07:26;;;;;;;8.73;5.60;;;;;;;6.16;72.92;93803.50;5128775;28;20532;-70
2022/04/08 04:09:52;;;;;;;10.15;8.00;;;;;;;6.16;73.11;93793.19;5110414;27;20023;-70
2022/04/08 04:12:17;;;;;;;8.43;5.35;;;;;;;6.23;72.94;93799.47;5126733;28;20059;-70
2022/04/08 04:14:43;;;;;;;6.10;4.70;;;;;;;6.23;72.23;93810.59;5125443;28;20473;-70
2022/04/08 04:17:09;;;;;;;6.43;4.20;;;;;;;6.21;72.30;93809.91;5127818;28;20043;-70
2022/04/08 04:19:34;;;;;;;4.50;3.13;;;;;;;6.22;72.06;93808.97;5126961;27;20028;-69
2022/04/08 04:22:00;;;;;;;4.22;3.30;;;;;;;6.18;72.01;93807.56;5093248;28;20569;-70
2022/04/08 04:24:25;;;;;;;3.92;2.95;;;;;;;6.27;71.80;93821.50;5126556;27;20597;-69
2022/04/08 04:26:51;;;;;;;4.50;3.33;;;;;;;6.26;72.15;93832.75;5127180;28;20476;-70
2022/04/08 04:29:16;;;;;;;8.00;3.97;;;;;;;6.12;71.56;93833.03;5126761;28;20035;-70
2022/04/08 04:31:42;;;;;;;6.18;3.90;;;;;;;6.07;72.11;93843.72;5107325;28;20039;-69
2022/04/08 04:34:07;;;;;;;6.93;4.07;;;;;;;6.04;72.45;93846.53;5125747;28;20050;-69
2022/04/08 04:36:32;;;;;;;6.35;4.40;;;;;;;6.09;72.56;93848.75;5129271;27;20047;-70
2022/04/08 04:38:58;;;;;;;5.63;3.90;;;;;;;6.09;72.88;93838.44;5130771;27;20068;-70
2022/04/08 04:41:23;;;;;;;3.67;2.40;;;;;;;6.16;72.81;93845.56;5131215;27;20158;-70
2022/04/08 04:43:49;;;;;;;5.15;2.83;;;;;;;6.05;71.93;93845.63;5112834;28;20027;-69
2022/04/08 04:46:14;;;;;;;4.97;3.58;;;;;;;6.01;72.86;93846.78;5129872;28;20027;-71
2022/04/08 04:48:40;;;;;;;4.70;3.58;;;;;;;6.11;73.14;93858.00;5130063;28;20027;-69
2022/04/08 04:51:05;;;;;;;4.57;2.80;;;;;;;6.24;73.61;93847.50;5129970;28;20032;-69
2022/04/08 04:53:31;;;;;;;4.18;2.70;;;;;;;6.25;73.44;93847.41;5130181;28;20439;-70
2022/04/08 04:55:56;;;;;;;4.10;2.50;;;;;;;6.33;73.25;93854.53;5112677;28;20027;-69
2022/04/08 04:58:22;;;;;;;4.05;2.55;;;;;;;6.49;73.12;93872.13;5130445;27;20031;-70
2022/04/08 05:00:47;;;;;;;3.58;2.30;;;;;;;6.60;73.52;93895.31;5133527;27;20027;-69
2022/04/08 05:03:13;;;;;;;3.38;2.65;;;;;;;6.70;73.47;93872.97;5116591;27;20088;-69
2022/04/08 05:05:39;;;;;;;4.18;3.38;;;;;;;6.92;71.56;93878.94;5133312;27;20024;-71
2022/04/08 05:08:06;;;;;;;4.53;2.83;;;;;;;7.01;70.64;93874.75;5115484;27;20039;-73
2022/04/08 05:10:32;;;;;;;5.18;3.40;;;;;;;7.25;71.64;93895.16;5108518;28;20440;-73
2022/04/08 05:13:01;;;;;;;5.95;3.90;;;;;;;7.55;71.37;93897.72;5082825;27;20027;-73
2022/04/08 05:15:27;;;;;;;4.43;3.40;;;;;;;7.81;69.53;93898.06;5105654;27;20042;-72
2022/04/08 05:17:53;;;;;;;5.50;3.47;;;;;;;8.01;68.37;93896.31;5118519;27;20110;-72
2022/04/08 05:20:18;;;;;;;5.13;3.17;;;;;;;8.28;68.14;93910.38;5092484;27;20035;-74
2022/04/08 05:22:47;;;;;;;4.93;2.90;;;;;;;8.48;66.67;93906.88;5130460;27;20096;-72
2022/04/08 05:25:12;;;;;;;5.03;2.83;;;;;;;8.68;66.67;93917.22;5123281;27;20079;-72
2022/04/08 05:27:38;;;;;;;4.30;2.67;;;;;;;8.86;66.19;93925.09;5095715;27;20035;-72
2022/04/08 05:30:08;;;;;;;4.50;2.90;;;;;;;8.99;64.88;93912.69;5090589;27;20035;-73
2022/04/08 05:32:34;;;;;;;5.00;2.33;;;;;;;9.24;63.63;93931.19;5122015;27;20027;-72
2022/04/08 05:34:59;;;;;;;4.60;2.75;;;;;;;9.24;63.43;93900.91;5120477;27;20382;-72
2022/04/08 05:37:25;;;;;;;5.78;3.08;;;;;;;9.49;64.00;93919.38;5112510;27;20505;-72
2022/04/08 05:39:52;;;;;;;5.90;2.63;;;;;;;9.47;63.89;93892.78;5128963;27;20412;-72
2022/04/08 05:42:18;;;;;;;3.72;2.30;;;;;;;9.55;61.67;93890.28;5111369;27;20039;-72
2022/04/08 05:44:43;;;;;;;4.35;2.60;;;;;;;9.57;62.29;93878.81;5100234;28;20750;-72
2022/04/08 05:47:09;;;;;;;7.13;3.15;;;;;;;10.09;61.95;93921.56;5111758;27;20046;-72
2022/04/08 05:49:34;;;;;;;4.05;2.50;;;;;;;9.96;60.91;93883.78;5094152;27;20489;-72
2022/04/08 05:52:00;;;;;;;5.10;2.58;;;;;;;10.11;60.88;93891.88;5125874;27;20031;-72
2022/04/08 05:54:25;;;;;;;4.05;2.50;;;;;;;10.09;60.08;93899.03;5095386;27;20378;-72
2022/04/08 05:56:51;;;;;;;3.67;2.55;;;;;;;10.32;59.47;93907.22;5106810;27;20083;-72
2022/04/08 05:59:16;;;;;;;3.63;2.13;;;;;;;10.68;59.13;93930.63;5110884;27;20038;-73
2022/04/08 06:01:42;;;;;;;3.53;2.58;;;;;;;10.86;59.23;93935.78;5125448;27;20031;-72
2022/04/08 06:04:07;;;;;;;5.65;2.33;;;;;;;10.78;58.72;93889.78;5123672;27;20103;-73
2022/04/08 06:06:33;;;;;;;4.50;2.20;;;;;;;11.23;58.55;93945.16;5113114;27;20026;-73
2022/04/08 06:08:58;;;;;;;3.65;2.10;;;;;;;11.10;58.65;93920.38;5125648;27;20035;-75
2022/04/08 06:11:24;;;;;;;4.15;2.40;;;;;;;11.30;58.06;93956.59;5125439;27;20421;-74
2022/04/08 06:13:49;;;;;;;4.60;2.50;;;;;;;11.27;59.02;93952.50;5128884;27;20050;-75
2022/04/08 06:16:15;;;;;;;4.03;2.40;;;;;;;11.10;59.01;93938.56;5122109;27;21542;-73
2022/04/08 06:18:40;;;;;;;5.10;2.78;;;;;;;11.11;59.58;93944.59;5127494;27;20084;-75
2022/04/08 06:21:06;;;;;;;4.03;2.30;;;;;;;10.96;59.24;93941.72;5125522;27;20023;-75
2022/04/08 06:23:31;;;;;;;3.60;2.53;;;;;;;10.85;59.99;93934.16;5104090;28;20134;-74
2022/04/08 06:25:56;;;;;;;3.88;2.20;;;;;;;10.81;60.60;93925.03;5091748;27;20079;-75
2022/04/08 06:28:22;;;;;;;4.20;2.38;;;;;;;10.99;60.57;93943.22;5096601;27;20583;-71
2022/04/08 06:30:47;;;;;;;4.25;2.65;;;;;;;11.09;59.78;93936.97;5127978;27;20029;-74
2022/04/08 06:33:13;;;;;;;5.82;2.67;;;;;;;11.29;59.78;93954.97;5105766;27;20106;-71
2022/04/08 06:35:38;;;;;;;4.72;2.50;;;;;;;11.48;57.62;93959.97;5124303;27;20553;-72
2022/04/08 06:38:05;;;;;;;3.70;2.13;;;;;;;11.59;57.71;93946.72;5127904;27;20047;-72
2022/04/08 06:40:39;;;;;;;3.08;1.90;;;;;;;11.83;56.56;93953.81;5094311;27;20023;-72
2022/04/08 06:43:05;;;;;;;4.28;2.30;;;;;;;11.95;57.13;93937.94;5128957;27;20054;-72
2022/04/08 06:45:31;;;;;;;4.35;2.17;;;;;;;12.17;55.88;93960.00;5112079;27;20053;-72
2022/04/08 06:47:57;;;;;;;2.65;1.85;;;;;;;12.26;55.56;93954.69;5126653;27;20040;-72
2022/04/08 06:50:22;;;;;;;3.75;2.28;;;;;;;12.32;55.26;93953.22;5111511;27;20469;-72
2022/04/08 06:52:48;;;;;;;3.17;2.05;;;;;;;12.47;55.88;93956.03;5114136;27;20042;-73
2022/04/08 06:55:13;;;;;;;7.25;2.30;;;;;;;12.65;55.71;93967.16;5129141;27;20405;-73
2022/04/08 06:57:39;;;;;;;6.47;2.20;;;;;;;12.83;55.00;93964.41;5129519;27;20541;-73
2022/04/08 07:00:06;;;;;;;4.35;2.10;;;;;;;13.09;55.34;93977.31;5109399;27;20027;-73
2022/04/08 07:02:31;;;;;;;5.18;2.08;;;;;;;13.23;53.98;93977.59;5115232;27;20022;-73
2022/04/08 07:04:57;;;;;;;4.25;2.20;;;;;;;13.31;54.36;93983.66;5128552;27;20045;-73
2022/04/08 07:07:27;;;;;;;3.20;1.80;;;;;;;13.20;53.72;93970.91;5131516;27;20481;-72
2022/04/08 07:09:52;;;;;;;5.07;2.05;;;;;;;13.28;51.93;93967.53;5130862;27;20023;-72
2022/04/08 07:12:18;;;;;;;2.92;2.00;;;;;;;13.15;53.17;93973.22;5129565;27;20088;-73
2022/04/08 07:14:43;;;;;;;3.38;1.77;;;;;;;13.21;52.71;93969.16;5130422;27;20030;-72
2022/04/08 07:17:09;;;;;;;6.43;2.00;;;;;;;13.34;52.69;93964.25;5110942;27;20520;-73
2022/04/08 07:19:34;;;;;;;6.15;1.90;;;;;;;13.51;52.22;93976.34;5136360;27;20477;-73
2022/04/08 07:22:00;;;;;;;3.55;1.70;;;;;;;13.71;52.72;93984.63;5127037;27;20401;-73
2022/04/08 07:24:25;;;;;;;4.63;2.00;;;;;;;13.76;51.47;93984.94;5113794;27;20485;-73
2022/04/08 07:26:51;;;;;;;3.65;1.80;;;;;;;13.61;50.93;93999.63;5111256;27;20035;-72
2022/04/08 07:29:16;;;;;;;4.55;1.70;;;;;;;13.61;51.43;93994.41;5126484;27;20434;-72
2022/04/08 07:31:42;;;;;;;3.38;1.50;;;;;;;13.73;51.19;93995.69;5128838;27;20494;-72
2022/04/08 07:34:07;;;;;;;6.35;1.70;;;;;;;13.72;50.20;93999.28;5127430;27;20476;-72
2022/04/08 07:36:32;;;;;;;3.65;1.70;;;;;;;13.72;50.99;93998.47;5127657;27;20051;-73
2022/04/08 07:38:58;;;;;;;2.35;1.45;;;;;;;13.90;50.12;94006.09;5125686;27;20035;-73
2022/04/08 07:41:23;;;;;;;3.97;1.60;;;;;;;13.92;50.05;93996.31;5129866;27;20659;-72
2022/04/08 07:43:50;;;;;;;3.95;1.80;;;;;;;14.23;49.18;94012.84;5130449;27;20035;-72
2022/04/08 07:46:15;;;;;;;2.90;1.30;;;;;;;14.20;50.25;93996.72;5128355;28;20059;-73
2022/04/08 07:48:40;;;;;;;3.03;1.63;;;;;;;14.15;48.79;93999.84;5139032;27;20069;-72
2022/04/08 07:51:06;;;;;;;4.55;1.50;;;;;;;14.11;50.01;94014.22;5128132;28;20023;-72
2022/04/08 07:53:32;;;;;;;4.20;1.42;;;;;;;14.11;50.46;94003.78;5133467;27;20546;-73
2022/04/08 07:55:57;;;;;;;2.90;1.30;;;;;;;14.11;48.59;94009.00;5128089;28;20720;-72
2022/04/08 07:58:23;;;;;;;2.63;1.27;;;;;;;14.06;49.91;93991.19;5122718;27;20508;-73
2022/04/08 08:00:51;;;;;;;2.17;1.38;;;;;;;14.20;49.51;94013.19;5127630;27;20035;-73
2022/04/08 08:03:19;;;;;;;2.53;1.30;;;;;;;14.22;50.55;94003.41;5133081;27;20034;-72
2022/04/08 08:05:44;;;;;;;2.83;1.40;;;;;;;14.38;48.86;94015.59;5095819;28;20501;-73
2022/04/08 08:08:10;;;;;;;3.03;1.20;;;;;;;14.51;47.88;94004.59;5119887;27;20038;-72
2022/04/08 08:10:35;;;;;;;2.15;1.25;;;;;;;14.59;47.89;94006.38;5112991;28;20032;-73
2022/04/08 08:13:01;;;;;;;2.35;1.30;;;;;;;14.79;48.16;94004.97;5112733;28;20028;-73
2022/04/08 08:15:26;;;;;;;2.20;1.42;;;;;;;15.00;45.59;94006.97;5128535;28;20439;-73
2022/04/08 08:17:52;;;;;;;2.58;1.30;;;;;;;15.13;41.89;93994.13;5096190;28;20035;-71
2022/04/08 08:20:20;;;;;;;2.97;1.40;;;;;;;15.30;41.59;93980.94;5125026;28;20126;-77
2022/04/08 08:22:46;;;;;;;4.82;3.92;;;;;;;15.36;43.32;93961.91;5115871;27;20101;-76
2022/04/08 08:25:11;;;;;;;3.55;1.50;;;;;;;15.79;42.40;94001.47;5093006;28;20034;-73
2022/04/08 08:27:39;;;;;;;2.63;1.20;;;;;;;15.97;44.82;94006.38;5130555;27;20049;-73
2022/04/08 08:30:06;;;;;;;3.83;1.30;;;;;;;16.12;42.32;94001.94;5125643;28;20027;-73
2022/04/08 08:32:31;;;;;;;4.07;1.30;;;;;;;16.25;40.52;94001.31;5132885;27;20064;-73
2022/04/08 08:34:57;;;;;;;2.72;1.20;;;;;;;16.46;38.90;94006.63;5135740;27;20031;-73
2022/04/08 08:37:22;;;;;;;2.45;1.20;;;;;;;16.61;35.70;94004.00;5132007;27;20062;-73
2022/04/08 08:39:48;;;;;;;3.20;1.23;;;;;;;16.67;38.11;94012.94;5131142;27;20140;-73
2022/04/08 08:42:13;;;;;;;1.80;1.15;;;;;;;16.81;35.72;94019.19;5133180;27;20035;-73
2022/04/08 08:44:39;;;;;;;2.45;1.40;;;;;;;16.91;36.14;94035.41;5136548;27;20027;-73
2022/04/08 08:47:05;;;;;;;2.60;1.20;;;;;;;17.04;34.93;94019.03;5131631;27;20035;-73
2022/04/08 08:49:31;;;;;;;5.07;1.50;;;;;;;17.15;34.10;94021.97;5130261;27;20066;-73
2022/04/08 08:51:58;;;;;;;2.70;1.27;;;;;;;17.26;34.97;94027.75;5131926;27;20041;-73
2022/04/08 08:54:23;;;;;;;2.00;1.27;;;;;;;17.26;34.98;94014.63;5131714;27;20170;-73
2022/04/08 08:56:49;;;;;;;4.35;1.30;;;;;;;17.35;34.17;94032.66;5132782;27;20031;-74
2022/04/08 08:59:15;;;;;;;4.63;1.40;;;;;;;17.38;34.23;94021.81;5094874;27;20046;-73
2022/04/08 09:01:40;;;;;;;1.40;0.90;;;;;;;17.54;34.45;94025.97;5114317;27;20023;-73
2022/04/08 09:04:06;;;;;;;3.15;1.13;;;;;;;17.64;35.43;94015.16;5112805;27;20512;-73
2022/04/08 09:06:41;;;;;;;3.22;1.23;;;;;;;17.77;35.02;94012.63;5132829;27;20428;-73
2022/04/08 09:09:06;;;;;;;5.00;2.70;;;;;;;17.90;33.65;94013.78;5120025;27;20121;-72
2022/04/08 09:11:32;;;;;;;3.47;1.48;;;;;;;17.96;34.01;94015.63;5131587;27;20329;-73
2022/04/08 09:14:04;;;;;;;5.05;1.70;;;;;;;18.07;35.63;94017.72;5120638;27;20567;-75
2022/04/08 09:16:35;;;;;;;2.97;1.13;;;;;;;18.09;33.16;94019.16;5109878;28;20035;-73
2022/04/08 09:19:11;;;;;;;2.47;1.20;;;;;;;17.97;33.74;93999.69;5123688;27;20937;-73
2022/04/08 09:21:37;;;;;;;2.15;1.35;;;;;;;18.08;32.64;94003.59;5130801;27;20035;-73
2022/04/08 09:24:06;;;;;;;3.25;1.70;;;;;;;18.04;33.75;94007.59;5130763;27;20076;-73
2022/04/08 09:26:35;;;;;;;2.58;1.20;;;;;;;18.09;33.41;94011.28;5113231;27;20043;-72
2022/04/08 09:29:00;;;;;;;2.45;1.40;;;;;;;18.11;32.17;94005.00;5139969;27;20420;-72
2022/04/08 09:31:26;;;;;;;2.92;1.30;;;;;;;18.13;32.95;94009.06;5130898;27;20059;-73
2022/04/08 09:33:55;;;;;;;2.72;1.00;;;;;;;18.20;34.63;94004.69;5138242;27;20030;-73
2022/04/08 09:36:30;;;;;;;2.53;1.30;;;;;;;18.23;33.90;93996.41;5131706;27;20075;-76
2022/04/08 09:38:56;;;;;;;1.98;1.20;;;;;;;18.29;33.21;94018.47;5110691;27;20488;-72
2022/04/08 09:41:21;;;;;;;3.25;1.17;;;;;;;18.30;32.57;94010.41;5114628;27;20019;-73
2022/04/08 09:43:47;;;;;;;3.38;1.30;;;;;;;18.26;32.96;93997.84;5110330;27;20028;-73
2022/04/08 09:46:21;;;;;;;2.58;1.30;;;;;;;18.26;34.25;93984.69;5110506;28;20028;-73
2022/04/08 09:48:47;;;;;;;4.22;1.08;;;;;;;18.58;35.07;94006.88;5120914;27;20049;-73
2022/04/08 09:51:20;;;;;;;4.15;1.02;;;;;;;18.60;33.50;94004.88;5130660;27;20031;-74
2022/04/08 09:53:48;;;;;;;2.40;1.42;;;;;;;18.57;32.27;93994.75;5121776;27;20039;-73
2022/04/08 09:56:15;;;;;;;2.50;1.00;;;;;;;18.64;32.73;93994.78;5096948;28;20027;-72
2022/04/08 09:58:48;;;;;;;3.00;1.15;;;;;;;18.66;32.50;94004.09;5099119;27;20067;-73
2022/04/08 10:01:14;;;;;;;2.13;1.02;;;;;;;18.65;32.38;94007.72;5109476;28;20515;-73
2022/04/08 10:03:39;;;;;;;2.35;1.40;;;;;;;18.75;32.68;94012.69;5102666;28;20042;-72
2022/04/08 10:06:05;;;;;;;3.00;1.00;;;;;;;18.73;32.08;93999.69;5120289;27;20045;-73
2022/04/08 10:08:30;;;;;;;2.03;1.10;;;;;;;18.77;32.63;94002.75;5109948;27;20034;-73
2022/04/08 10:11:09;;;;;;;3.30;1.10;;;;;;;18.83;32.51;94001.94;5110979;27;20041;-73
2022/04/08 10:13:58;;;;;;;1.58;1.20;;;;;;;18.95;34.06;94005.66;5121229;27;20058;-73
2022/04/08 10:16:24;;;;;;;2.63;1.20;;;;;;;19.07;34.02;94000.63;5130360;27;20563;-72
2022/04/08 10:18:50;;;;;;;3.20;1.30;;;;;;;19.12;33.43;93997.41;5111090;27;20039;-73
2022/04/08 10:21:17;;;;;;;3.58;1.20;;;;;;;19.23;32.93;93990.75;5131066;27;20133;-72
2022/04/08 10:23:50;;;;;;;2.28;1.10;;;;;;;19.23;32.92;93982.84;5131353;27;20031;-73
2022/04/08 10:26:23;;;;;;;3.35;1.30;;;;;;;19.10;32.14;93978.34;5113995;27;20023;-72
2022/04/08 10:28:50;;;;;;;2.88;1.63;;;;;;;19.06;32.55;93983.22;5112469;27;20031;-72
2022/04/08 10:31:23;;;;;;;2.95;1.60;;;;;;;19.10;31.73;93994.16;5113329;27;20081;-73
2022/04/08 10:33:58;;;;;;;2.78;1.40;;;;;;;18.94;32.66;93979.53;5121997;27;20027;-73
2022/04/08 10:36:34;;;;;;;3.33;1.65;;;;;;;18.94;32.40;93987.41;5095622;27;20059;-72
2022/04/08 10:39:28;;;;;;;1.83;1.15;;;;;;;18.93;33.96;93993.69;5115145;27;20028;-73
2022/04/08 10:41:58;;;;;;;3.47;1.20;;;;;;;18.94;33.66;93984.78;5121960;27;20087;-73
2022/04/08 10:44:37;;;;;;;3.08;1.40;;;;;;;19.01;34.06;93984.81;5122434;27;20424;-73
2022/04/08 10:47:14;;;;;;;2.35;1.20;;;;;;;19.01;33.88;93990.91;5112105;27;20031;-73
2022/04/08 10:50:12;;;;;;;3.17;1.20;;;;;;;18.83;35.00;93945.91;5106811;28;20114;-73
2022/04/08 10:52:40;;;;;;;4.80;1.40;;;;;;;19.23;33.42;93977.59;5086712;27;20043;-74
2022/04/08 10:55:07;;;;;;;2.47;1.20;;;;;;;19.24;33.61;93969.47;5127475;27;20062;-70
2022/04/08 10:57:40;;;;;;;5.57;2.20;;;;;;;19.26;33.88;93966.66;5127122;27;20530;-71
2022/04/08 11:00:10;;;;;;;4.45;1.60;;;;;;;19.38;32.83;93981.63;5110243;27;20565;-72
2022/04/08 11:02:40;;;;;;;3.63;1.40;;;;;;;19.37;33.53;93971.31;5129582;27;20042;-72
2022/04/08 11:05:09;;;;;;;3.90;1.92;;;;;;;19.38;33.84;93965.84;5111803;27;20428;-72
2022/04/08 11:07:35;;;;;;;3.65;1.90;;;;;;;19.33;33.23;93970.88;5128943;27;20075;-72
2022/04/08 11:10:00;;;;;;;3.30;1.40;;;;;;;19.16;32.92;93973.09;5125032;27;20035;-72
2022/04/08 11:12:25;;;;;;;2.50;1.20;;;;;;;19.10;32.75;93973.09;5095542;27;20118;-72
2022/04/08 11:14:55;;;;;;;3.13;1.65;;;;;;;18.98;32.66;93970.25;5127090;27;20508;-72
2022/04/08 11:17:20;;;;;;;2.25;1.20;;;;;;;18.94;31.74;93963.75;5114008;27;20048;-72
2022/04/08 11:19:49;;;;;;;2.83;1.70;;;;;;;18.95;34.38;93965.38;5134993;27;20588;-72
2022/04/08 11:22:15;;;;;;;3.83;2.20;;;;;;;19.01;33.86;93956.69;5130738;27;20377;-72
2022/04/08 11:24:40;;;;;;;1.65;1.20;;;;;;;18.94;33.45;93958.47;5094513;27;20031;-72
2022/04/08 11:27:06;;;;;;;2.80;1.50;;;;;;;18.92;33.76;93950.00;5094633;27;20108;-72
2022/04/08 11:29:31;;;;;;;2.20;1.30;;;;;;;19.00;33.93;93951.59;5129998;27;20554;-72
2022/04/08 11:32:08;;;;;;;4.93;1.85;;;;;;;19.08;33.62;93960.13;5127820;27;20277;-72
2022/04/08 11:34:34;;;;;;;6.22;1.35;;;;;;;19.04;33.38;93958.91;5137828;27;20118;-72